createdAt,value
2022-09-11T00:01:52.182Z,18.40
2022-09-11T00:04:54.805Z,18.40
2022-09-11T00:07:56.890Z,18.40
2022-09-11T00:11:03.419Z,18.40
2022-09-11T00:14:05.183Z,18.50
2022-09-11T00:17:07.047Z,18.40
2022-09-11T00:20:09.448Z,18.50
2022-09-11T00:23:11.333Z,18.50
2022-09-11T00:26:13.222Z,18.50
2022-09-11T00:29:15.096Z,18.50
2022-09-11T00:32:19.115Z,18.50
2022-09-11T00:35:21.321Z,18.60
2022-09-11T00:38:23.204Z,18.40
2022-09-11T00:41:37.602Z,18.40
2022-09-11T00:44:39.544Z,18.40
2022-09-11T00:47:42.559Z,18.50
2022-09-11T00:50:44.841Z,18.50
2022-09-11T00:53:48.899Z,18.60
2022-09-11T00:56:50.775Z,18.50
2022-09-11T00:59:55.788Z,18.60
2022-09-11T01:02:58.426Z,18.50
2022-09-11T01:06:01.145Z,18.40
2022-09-11T01:09:04.049Z,18.50
2022-09-11T01:12:10.340Z,18.50
2022-09-11T01:15:21.328Z,18.50
2022-09-11T01:18:32.890Z,18.50
2022-09-11T01:21:53.590Z,18.40
2022-09-11T01:25:39.890Z,18.50
2022-09-11T01:29:10.884Z,18.50
2022-09-11T01:32:23.737Z,18.50
2022-09-11T01:35:44.672Z,18.40
2022-09-11T01:38:47.753Z,18.40
2022-09-11T01:41:58.302Z,18.60
2022-09-11T01:45:01.201Z,18.50
2022-09-11T01:48:04.082Z,18.40
2022-09-11T01:51:09.697Z,18.50
2022-09-11T01:54:16.678Z,18.50
2022-09-11T01:57:26.491Z,18.50
2022-09-11T02:00:32.058Z,18.50
2022-09-11T02:03:39.545Z,18.50
2022-09-11T02:06:59.703Z,18.50
2022-09-11T02:10:06.405Z,18.50
2022-09-11T02:13:29.111Z,18.50
2022-09-11T02:16:53.160Z,18.60
2022-09-11T02:19:57.092Z,18.60
2022-09-11T02:22:59.177Z,18.50
2022-09-11T02:26:01.431Z,18.50
2022-09-11T02:29:03.717Z,18.50
2022-09-11T02:32:06.858Z,18.60
2022-09-11T02:35:09.914Z,18.50
2022-09-11T02:38:25.091Z,18.50
2022-09-11T02:41:59.515Z,18.50
2022-09-11T02:45:20.735Z,18.50
2022-09-11T02:49:03.095Z,18.50
2022-09-11T02:52:18.624Z,18.50
2022-09-11T02:55:25.336Z,18.40
2022-09-11T02:58:39.048Z,18.40
2022-09-11T03:01:52.420Z,18.40
2022-09-11T03:04:57.674Z,18.40
2022-09-11T03:07:59.775Z,18.40
2022-09-11T03:11:01.676Z,18.40
2022-09-11T03:14:04.984Z,18.40
2022-09-11T03:17:07.264Z,18.40
2022-09-11T03:20:11.309Z,18.40
2022-09-11T03:23:14.096Z,18.40
2022-09-11T03:26:19.713Z,18.30
2022-09-11T03:29:23.110Z,18.30
2022-09-11T03:32:27.657Z,18.30
2022-09-11T03:35:31.988Z,18.40
2022-09-11T03:38:33.841Z,18.30
2022-09-11T03:41:35.995Z,18.40
2022-09-11T03:44:40.333Z,18.30
2022-09-11T03:47:42.410Z,18.40
2022-09-11T03:50:51.292Z,18.40
2022-09-11T03:53:53.690Z,18.30
2022-09-11T03:56:56.180Z,18.20
2022-09-11T03:59:58.039Z,18.20
2022-09-11T04:02:59.917Z,18.30
2022-09-11T04:06:10.343Z,18.30
2022-09-11T04:09:12.720Z,18.30
2022-09-11T04:12:14.739Z,18.30
2022-09-11T04:15:16.926Z,18.30
2022-09-11T04:18:19.071Z,18.30
2022-09-11T04:21:21.035Z,18.30
2022-09-11T04:24:26.601Z,18.30
2022-09-11T04:27:28.590Z,18.30
2022-09-11T04:30:30.481Z,18.30
2022-09-11T04:33:32.416Z,18.30
2022-09-11T04:36:34.411Z,18.30
2022-09-11T04:39:36.915Z,18.20
2022-09-11T04:42:38.916Z,18.30
2022-09-11T04:45:40.857Z,18.30
2022-09-11T04:48:53.492Z,18.30
2022-09-11T04:52:03.086Z,18.30
2022-09-11T04:55:05.593Z,18.40
2022-09-11T04:58:07.476Z,18.30
2022-09-11T05:01:15.079Z,18.40
2022-09-11T05:04:21.695Z,18.30
2022-09-11T05:07:26.253Z,18.40
2022-09-11T05:10:30.354Z,18.40
2022-09-11T05:13:36.822Z,18.30
2022-09-11T05:16:40.129Z,18.40
2022-09-11T05:19:44.915Z,18.40
2022-09-11T05:22:47.004Z,18.40
2022-09-11T05:25:49.071Z,18.40
2022-09-11T05:28:59.855Z,18.30
2022-09-11T05:32:02.897Z,18.40
2022-09-11T05:35:07.557Z,18.40
2022-09-11T05:38:10.195Z,18.40
2022-09-11T05:41:13.548Z,18.30
2022-09-11T05:44:15.409Z,18.30
2022-09-11T05:47:17.920Z,18.40
2022-09-11T05:50:23.662Z,18.40
2022-09-11T05:53:28.119Z,18.40
2022-09-11T05:56:34.024Z,18.50
2022-09-11T05:59:40.238Z,18.50
2022-09-11T06:02:42.640Z,18.50
2022-09-11T06:05:44.996Z,18.50
2022-09-11T06:08:47.332Z,18.50
2022-09-11T06:11:49.208Z,18.60
2022-09-11T06:14:51.860Z,18.70
2022-09-11T06:17:53.930Z,18.70
2022-09-11T06:21:04.750Z,18.80
2022-09-11T06:24:16.696Z,18.80
2022-09-11T06:27:18.650Z,18.80
2022-09-11T06:30:25.278Z,18.90
2022-09-11T06:33:30.539Z,18.80
2022-09-11T06:36:32.443Z,18.80
2022-09-11T06:39:38.160Z,18.90
2022-09-11T06:42:40.596Z,18.90
2022-09-11T06:45:42.600Z,18.90
2022-09-11T06:48:45.989Z,18.90
2022-09-11T06:51:48.634Z,18.90
2022-09-11T06:54:50.402Z,19.00
2022-09-11T06:57:53.170Z,19.20
2022-09-11T07:01:07.804Z,19.30
2022-09-11T07:04:10.217Z,19.40
2022-09-11T07:07:12.228Z,19.40
2022-09-11T07:10:17.471Z,19.50
2022-09-11T07:13:24.360Z,19.60
2022-09-11T07:16:27.020Z,19.50
2022-09-11T07:19:30.367Z,19.70
2022-09-11T07:22:33.592Z,19.70
2022-09-11T07:25:37.072Z,19.70
2022-09-11T07:28:39.994Z,19.70
2022-09-11T07:31:42.061Z,19.80
2022-09-11T07:34:45.291Z,19.90
2022-09-11T07:37:51.104Z,19.80
2022-09-11T07:40:54.707Z,19.70
2022-09-11T07:43:59.767Z,19.90
2022-09-11T07:47:04.312Z,19.90
2022-09-11T07:50:11.942Z,19.90
2022-09-11T07:53:14.155Z,20.00
2022-09-11T07:56:24.720Z,19.90
2022-09-11T07:59:29.261Z,20.00
2022-09-11T08:02:31.568Z,20.60
2022-09-11T08:05:33.589Z,20.80
2022-09-11T08:08:35.612Z,21.90
2022-09-11T08:11:40.306Z,22.40
2022-09-11T08:14:42.774Z,22.80
2022-09-11T08:17:54.962Z,23.40
2022-09-11T08:21:07.626Z,24.40
2022-09-11T08:24:16.116Z,24.90
2022-09-11T08:27:20.056Z,24.80
2022-09-11T08:30:22.240Z,25.20
2022-09-11T08:33:24.431Z,25.00
2022-09-11T08:36:27.257Z,25.30
2022-09-11T08:39:29.336Z,24.50
2022-09-11T08:42:35.000Z,24.40
2022-09-11T08:45:37.167Z,23.80
2022-09-11T08:48:56.284Z,23.90
2022-09-11T08:52:01.885Z,23.10
2022-09-11T08:55:05.407Z,24.20
2022-09-11T08:58:31.370Z,25.20
2022-09-11T09:01:46.324Z,25.70
2022-09-11T09:05:13.180Z,26.10
2022-09-11T09:08:36.665Z,26.50
2022-09-11T09:12:03.357Z,26.90
2022-09-11T09:15:36.535Z,27.40
2022-09-11T09:18:50.909Z,26.60
2022-09-11T09:22:02.856Z,27.40
2022-09-11T09:25:12.489Z,27.20
2022-09-11T09:28:43.573Z,27.60
2022-09-11T09:31:48.281Z,26.40
2022-09-11T09:34:55.302Z,25.80
2022-09-11T09:37:57.943Z,26.30
2022-09-11T09:41:22.580Z,27.10
2022-09-11T09:44:41.157Z,27.60
2022-09-11T09:47:44.100Z,27.80
2022-09-11T09:50:47.404Z,28.00
2022-09-11T09:53:58.606Z,28.40
2022-09-11T09:57:04.972Z,28.30
2022-09-11T10:00:09.919Z,28.30
2022-09-11T10:03:18.938Z,28.20
2022-09-11T10:06:23.455Z,28.00
2022-09-11T10:09:30.294Z,28.50
2022-09-11T10:12:32.521Z,28.10
2022-09-11T10:15:43.491Z,28.00
2022-09-11T10:18:45.553Z,28.00
2022-09-11T10:21:47.437Z,28.00
2022-09-11T10:25:00.590Z,27.50
2022-09-11T10:28:07.145Z,27.30
2022-09-11T10:31:14.938Z,26.40
2022-09-11T10:34:19.067Z,25.50
2022-09-11T10:37:29.050Z,25.00
2022-09-11T10:40:31.191Z,24.80
2022-09-11T10:43:43.485Z,25.80
2022-09-11T10:46:45.449Z,26.90
2022-09-11T10:49:47.589Z,26.10
2022-09-11T11:03:22.623Z,24.70
2022-09-11T11:06:46.218Z,23.90
2022-09-11T11:10:14.669Z,23.80
2022-09-11T11:13:39.539Z,23.60
2022-09-11T11:17:07.715Z,23.40
2022-09-11T11:20:37.018Z,23.50
2022-09-11T11:23:45.950Z,24.20
2022-09-11T11:27:08.642Z,25.00
2022-09-11T11:30:22.411Z,25.50
2022-09-11T11:33:37.290Z,25.70
2022-09-11T11:36:51.100Z,25.20
2022-09-11T11:40:28.252Z,24.90
2022-09-11T11:43:34.417Z,24.90
2022-09-11T11:46:43.496Z,24.70
2022-09-11T11:50:23.045Z,25.20
2022-09-11T11:53:38.951Z,25.60
2022-09-11T11:56:51.036Z,25.90
2022-09-11T12:00:06.140Z,26.20
2022-09-11T12:03:18.241Z,26.40
2022-09-11T12:06:20.188Z,26.20
2022-09-11T12:09:22.215Z,25.90
2022-09-11T12:12:27.759Z,25.90
2022-09-11T12:15:31.323Z,26.00
2022-09-11T12:18:33.747Z,25.80
2022-09-11T12:21:40.613Z,25.70
2022-09-11T12:24:48.434Z,25.90
2022-09-11T12:28:41.468Z,25.90
2022-09-11T12:31:52.258Z,26.00
2022-09-11T12:35:11.355Z,25.90
2022-09-11T12:38:50.255Z,25.40
2022-09-11T12:41:52.252Z,25.10
2022-09-11T12:44:54.170Z,25.50
2022-09-11T12:48:10.006Z,26.00
2022-09-11T12:51:42.007Z,26.40
2022-09-11T12:54:43.995Z,26.50
2022-09-11T12:57:46.197Z,26.30
2022-09-11T13:00:50.931Z,26.50
2022-09-11T13:04:01.395Z,26.30
2022-09-11T13:07:06.487Z,26.00
2022-09-11T13:10:24.503Z,25.70
2022-09-11T13:13:36.351Z,26.00
2022-09-11T13:16:44.986Z,26.60
2022-09-11T13:19:46.827Z,26.70
2022-09-11T13:22:52.737Z,26.50
2022-09-11T13:25:58.331Z,26.10
2022-09-11T13:29:01.076Z,25.80
2022-09-11T13:32:13.461Z,25.50
2022-09-11T13:35:23.896Z,25.20
2022-09-11T13:38:28.954Z,25.00
2022-09-11T13:41:36.744Z,24.80
2022-09-11T13:44:42.111Z,24.90
2022-09-11T13:47:44.022Z,24.70
2022-09-11T13:50:46.208Z,24.70
2022-09-11T13:53:58.676Z,24.50
2022-09-11T13:57:00.745Z,24.50
2022-09-11T14:00:02.710Z,24.40
2022-09-11T14:03:25.903Z,24.30
2022-09-11T14:06:27.761Z,24.30
2022-09-11T14:09:29.864Z,24.40
2022-09-11T14:12:34.568Z,24.20
2022-09-11T14:15:43.714Z,24.30
2022-09-11T14:19:03.177Z,24.20
2022-09-11T14:22:24.814Z,24.30
2022-09-11T14:25:27.069Z,24.10
2022-09-11T14:28:41.993Z,24.10
2022-09-11T14:31:43.968Z,24.10
2022-09-11T14:34:46.433Z,24.20
2022-09-11T14:37:48.409Z,24.20
2022-09-11T14:40:57.707Z,24.20
2022-09-11T14:43:59.565Z,24.20
2022-09-11T14:47:01.753Z,24.00
2022-09-11T14:50:03.863Z,23.90
2022-09-11T14:53:05.862Z,23.80
2022-09-11T14:56:07.769Z,23.80
2022-09-11T14:59:09.481Z,23.70
2022-09-11T15:02:21.523Z,23.50
2022-09-11T15:05:23.412Z,23.40
2022-09-11T15:08:25.950Z,23.40
2022-09-11T15:11:27.994Z,23.40
2022-09-11T15:14:54.431Z,23.30
2022-09-11T15:17:52.272Z,23.30
2022-09-11T15:20:54.960Z,23.20
2022-09-11T15:23:56.779Z,23.20
2022-09-11T15:27:03.208Z,23.10
2022-09-11T15:30:07.733Z,23.00
2022-09-11T15:33:10.590Z,23.00
2022-09-11T15:36:12.433Z,22.90
2022-09-11T15:39:16.279Z,22.90
2022-09-11T15:42:18.695Z,22.80
2022-09-11T15:45:20.609Z,22.70
2022-09-11T15:48:22.439Z,22.80
2022-09-11T15:51:24.311Z,22.80
2022-09-11T15:54:26.838Z,23.00
2022-09-11T15:57:29.823Z,23.20
2022-09-11T16:00:33.888Z,23.30
2022-09-11T16:03:35.772Z,23.40
2022-09-11T16:06:40.854Z,23.40
2022-09-11T16:09:42.709Z,23.40
2022-09-11T16:12:44.662Z,23.50
2022-09-11T16:15:46.712Z,23.50
2022-09-11T16:18:48.577Z,23.50
2022-09-11T16:21:50.308Z,23.50
2022-09-11T16:24:52.735Z,23.50
2022-09-11T16:27:59.548Z,23.50
2022-09-11T16:31:01.889Z,23.40
2022-09-11T16:34:04.560Z,23.40
2022-09-11T16:37:06.627Z,23.40
2022-09-11T16:43:21.379Z,23.30
2022-09-11T16:46:26.053Z,23.30
2022-09-11T16:49:28.022Z,23.30
2022-09-11T16:52:29.882Z,23.20
2022-09-11T16:55:31.923Z,23.20
2022-09-11T16:58:34.210Z,23.20
2022-09-11T17:01:36.416Z,23.10
2022-09-11T17:04:38.350Z,22.90
2022-09-11T17:07:40.116Z,22.80
2022-09-11T17:10:46.546Z,22.70
2022-09-11T17:13:50.926Z,22.70
2022-09-11T17:16:53.712Z,22.70
2022-09-11T17:19:55.546Z,22.60
2022-09-11T17:22:58.309Z,22.40
2022-09-11T17:26:00.471Z,22.40
2022-09-11T17:29:03.456Z,22.40
2022-09-11T17:32:26.594Z,22.20
2022-09-11T17:35:28.744Z,22.20
2022-09-11T17:38:31.581Z,22.10
2022-09-11T17:41:34.055Z,22.10
2022-09-11T17:44:36.238Z,21.90
2022-09-11T17:47:38.798Z,21.80
2022-09-11T17:50:40.703Z,21.90
2022-09-11T17:53:46.606Z,21.60
2022-09-11T17:56:48.499Z,21.50
2022-09-11T17:59:50.427Z,21.40
2022-09-11T18:02:52.346Z,21.30
2022-09-11T18:05:54.367Z,21.20
2022-09-11T18:08:59.912Z,21.10
2022-09-11T18:12:02.108Z,21.10
2022-09-11T18:15:04.469Z,21.10
2022-09-11T18:18:06.362Z,20.90
2022-09-11T18:21:10.751Z,20.80
2022-09-11T18:24:12.857Z,20.80
2022-09-11T18:27:14.794Z,20.80
2022-09-11T18:30:17.614Z,20.80
2022-09-11T18:33:19.440Z,20.50
2022-09-11T18:36:24.936Z,20.40
2022-09-11T18:39:27.827Z,20.00
2022-09-11T18:42:29.720Z,20.30
2022-09-11T18:45:31.559Z,20.30
2022-09-11T18:48:33.498Z,20.20
2022-09-11T18:51:36.231Z,20.10
2022-09-11T18:54:38.078Z,20.20
2022-09-11T18:57:42.339Z,19.90
2022-09-11T19:00:46.001Z,19.90
2022-09-11T19:03:48.046Z,20.00
2022-09-11T19:06:50.066Z,19.80
2022-09-11T19:09:51.843Z,19.90
2022-09-11T19:12:53.751Z,19.70
2022-09-11T19:16:00.370Z,19.80
2022-09-11T19:19:02.434Z,19.40
2022-09-11T19:22:04.297Z,19.40
2022-09-11T19:25:07.266Z,19.20
2022-09-11T19:28:09.278Z,19.10
2022-09-11T19:31:11.989Z,19.30
2022-09-11T19:34:14.036Z,19.40
2022-09-11T19:37:16.337Z,19.40
2022-09-11T19:40:18.251Z,19.20
2022-09-11T19:43:20.423Z,19.30
2022-09-11T19:46:22.983Z,18.90
2022-09-11T19:49:25.219Z,19.10
2022-09-11T19:52:29.796Z,18.90
2022-09-11T19:55:34.755Z,18.80
2022-09-11T19:58:39.131Z,18.80
2022-09-11T20:01:41.115Z,18.90
2022-09-11T20:04:42.964Z,18.80
2022-09-11T20:07:44.993Z,18.90
2022-09-11T20:10:47.980Z,19.00
2022-09-11T20:13:49.811Z,19.00
2022-09-11T20:16:51.873Z,19.00
2022-09-11T20:19:56.679Z,18.90
2022-09-11T20:23:00.310Z,18.80
2022-09-11T20:26:16.816Z,18.60
2022-09-11T20:29:19.115Z,18.70
2022-09-11T20:32:20.965Z,18.70
2022-09-11T20:35:22.837Z,18.50
2022-09-11T20:38:24.870Z,18.20
2022-09-11T20:41:30.342Z,18.10
2022-09-11T20:44:36.777Z,18.10
2022-09-11T20:47:39.103Z,18.20
2022-09-11T20:50:41.050Z,18.40
2022-09-11T20:53:43.180Z,18.40
2022-09-11T20:56:45.136Z,18.40
2022-09-11T20:59:47.026Z,18.40
2022-09-11T21:02:48.946Z,18.40
2022-09-11T21:05:54.242Z,18.40
2022-09-11T21:08:58.463Z,18.20
2022-09-11T21:12:00.365Z,18.30
2022-09-11T21:15:03.904Z,18.30
2022-09-11T21:18:06.445Z,18.30
2022-09-11T21:21:08.341Z,18.30
2022-09-11T21:24:13.424Z,18.10
2022-09-11T21:27:15.306Z,18.10
2022-09-11T21:30:17.175Z,18.10
2022-09-11T21:33:19.174Z,18.10
2022-09-11T21:36:21.176Z,18.10
2022-09-11T21:39:23.279Z,18.10
2022-09-11T21:42:25.581Z,18.00
2022-09-11T21:45:27.398Z,18.00
2022-09-11T21:48:32.431Z,17.90
2022-09-11T21:51:37.429Z,18.00
2022-09-11T21:54:39.303Z,18.00
2022-09-11T21:57:41.244Z,17.90
2022-09-11T22:00:43.911Z,17.90
2022-09-11T22:03:46.924Z,17.90
2022-09-11T22:06:48.825Z,17.80
2022-09-11T22:09:50.675Z,17.70
2022-09-11T22:12:52.672Z,17.80
2022-09-11T22:15:54.653Z,17.70
2022-09-11T22:18:56.619Z,17.70
2022-09-11T22:21:58.597Z,17.70
2022-09-11T22:25:00.429Z,17.60
2022-09-11T22:28:07.057Z,17.50
2022-09-11T22:31:15.662Z,17.50
2022-09-11T22:34:18.354Z,17.50
2022-09-11T22:37:20.258Z,17.50
2022-09-11T22:40:22.070Z,17.40
2022-09-11T22:43:23.946Z,17.30
2022-09-11T22:46:25.860Z,17.20
2022-09-11T22:49:27.704Z,17.20
2022-09-11T22:52:29.559Z,17.10
2022-09-11T22:55:31.384Z,17.20
2022-09-11T22:58:33.377Z,17.10
2022-09-11T23:01:36.199Z,17.20
2022-09-11T23:04:38.036Z,17.30
2022-09-11T23:07:39.862Z,17.20
2022-09-11T23:10:43.142Z,17.30
2022-09-11T23:13:45.089Z,17.20
2022-09-11T23:16:47.035Z,17.30
2022-09-11T23:19:48.869Z,17.40
2022-09-11T23:22:52.928Z,17.50
2022-09-11T23:25:54.706Z,17.40
2022-09-11T23:28:58.553Z,17.40
2022-09-11T23:32:00.478Z,17.20
2022-09-11T23:35:02.329Z,17.30
2022-09-11T23:38:07.281Z,17.20
2022-09-11T23:41:09.315Z,17.10
2022-09-11T23:44:11.252Z,17.00
2022-09-11T23:47:13.075Z,16.90
2022-09-11T23:50:15.989Z,16.90
2022-09-11T23:53:17.802Z,16.80
2022-09-11T23:56:20.106Z,16.90
2022-09-11T23:59:21.858Z,16.80
